createdAt,value
2022-11-26T00:00:46.197Z,2.90
2022-11-26T00:03:14.376Z,2.89
2022-11-26T00:05:49.621Z,2.84
2022-11-26T00:08:19.740Z,2.76
2022-11-26T00:10:48.869Z,2.79
2022-11-26T00:13:25.195Z,2.79
2022-11-26T00:15:52.535Z,2.84
2022-11-26T00:18:20.099Z,2.90
2022-11-26T00:20:53.740Z,2.89
2022-11-26T00:23:22.974Z,2.78
2022-11-26T00:25:56.498Z,2.86
2022-11-26T00:28:35.155Z,2.96
2022-11-26T00:31:04.806Z,2.76
2022-11-26T00:33:32.329Z,2.60
2022-11-26T00:36:12.678Z,2.41
2022-11-26T00:38:39.659Z,2.20
2022-11-26T00:41:15.136Z,2.10
2022-11-26T00:43:41.945Z,2.19
2022-11-26T00:46:14.470Z,2.18
2022-11-26T00:48:41.694Z,2.26
2022-11-26T00:51:23.780Z,2.37
2022-11-26T00:53:52.482Z,2.45
2022-11-26T00:56:21.947Z,2.54
2022-11-26T00:58:50.608Z,2.55
2022-11-26T01:01:23.194Z,2.58
2022-11-26T01:03:51.219Z,2.60
2022-11-26T01:06:22.393Z,2.70
2022-11-26T01:08:49.925Z,2.62
2022-11-26T01:11:19.035Z,2.60
2022-11-26T01:13:47.619Z,2.61
2022-11-26T01:16:26.305Z,2.58
2022-11-26T01:18:55.571Z,2.63
2022-11-26T01:21:24.051Z,2.55
2022-11-26T01:23:51.535Z,2.58
2022-11-26T01:26:23.985Z,2.62
2022-11-26T01:28:51.602Z,2.69
2022-11-26T01:31:21.198Z,2.67
2022-11-26T01:33:48.407Z,2.75
2022-11-26T01:36:20.099Z,2.72
2022-11-26T01:38:47.341Z,2.75
2022-11-26T01:41:49.368Z,2.78
2022-11-26T01:44:18.428Z,2.78
2022-11-26T01:46:46.115Z,2.72
2022-11-26T01:49:33.795Z,2.80
2022-11-26T01:52:09.577Z,2.77
2022-11-26T01:54:40.477Z,2.74
2022-11-26T01:57:16.123Z,2.78
2022-11-26T01:59:47.250Z,2.78
2022-11-26T02:02:14.215Z,2.78
2022-11-26T02:04:50.619Z,2.71
2022-11-26T02:07:17.474Z,2.77
2022-11-26T02:09:44.843Z,2.73
2022-11-26T02:12:11.808Z,2.61
2022-11-26T02:14:42.498Z,2.58
2022-11-26T02:17:24.977Z,2.54
2022-11-26T02:19:57.597Z,2.24
2022-11-26T02:22:49.214Z,2.22
2022-11-26T02:25:58.208Z,2.23
2022-11-26T02:28:43.739Z,2.23
2022-11-26T02:31:23.659Z,2.08
2022-11-26T02:34:22.941Z,1.98
2022-11-26T02:37:01.284Z,1.98
2022-11-26T02:39:29.905Z,1.97
2022-11-26T02:42:00.148Z,2.05
2022-11-26T02:44:45.060Z,2.01
2022-11-26T02:47:17.456Z,1.98
2022-11-26T02:49:48.401Z,1.90
2022-11-26T02:52:18.501Z,1.95
2022-11-26T02:54:48.215Z,1.95
2022-11-26T02:57:19.084Z,1.89
2022-11-26T02:59:47.113Z,1.75
2022-11-26T03:02:25.271Z,1.65
2022-11-26T03:04:57.299Z,1.70
2022-11-26T03:07:25.729Z,1.71
2022-11-26T03:09:58.253Z,1.70
2022-11-26T03:12:26.611Z,1.73
2022-11-26T03:14:53.516Z,1.78
2022-11-26T03:17:21.433Z,1.89
2022-11-26T03:19:48.235Z,1.95
2022-11-26T03:22:15.690Z,2.04
2022-11-26T03:24:42.961Z,2.18
2022-11-26T03:27:09.953Z,2.26
2022-11-26T03:29:36.797Z,2.17
2022-11-26T03:32:03.857Z,2.31
2022-11-26T03:34:30.848Z,2.32
2022-11-26T03:36:57.652Z,2.31
2022-11-26T03:39:24.688Z,2.31
2022-11-26T03:41:51.455Z,2.41
2022-11-26T03:44:18.511Z,2.42
2022-11-26T03:46:45.336Z,2.49
2022-11-26T03:49:12.276Z,2.54
2022-11-26T03:51:39.068Z,2.53
2022-11-26T03:54:05.916Z,2.49
2022-11-26T03:56:32.748Z,2.49
2022-11-26T03:58:59.609Z,2.45
2022-11-26T04:01:26.603Z,2.43
2022-11-26T04:03:53.821Z,2.48
2022-11-26T04:06:20.777Z,2.45
2022-11-26T04:08:48.330Z,2.51
2022-11-26T04:11:15.168Z,2.50
2022-11-26T04:13:42.227Z,2.42
2022-11-26T04:16:09.731Z,2.43
2022-11-26T04:18:37.552Z,2.41
2022-11-26T04:21:08.507Z,2.39
2022-11-26T04:23:37.081Z,2.34
2022-11-26T04:26:04.542Z,2.35
2022-11-26T04:28:31.998Z,2.41
2022-11-26T04:30:58.860Z,2.43
2022-11-26T04:33:28.418Z,2.48
2022-11-26T04:35:55.874Z,2.44
2022-11-26T04:38:26.007Z,2.45
2022-11-26T04:40:53.275Z,2.42
2022-11-26T04:43:20.194Z,2.43
2022-11-26T04:45:47.237Z,2.42
2022-11-26T04:48:14.250Z,2.47
2022-11-26T04:50:41.084Z,2.39
2022-11-26T04:53:09.244Z,2.41
2022-11-26T04:55:36.358Z,2.41
2022-11-26T04:58:03.469Z,2.36
2022-11-26T05:00:30.324Z,2.38
2022-11-26T05:02:57.293Z,2.35
2022-11-26T05:05:24.123Z,2.16
2022-11-26T05:07:51.011Z,1.91
2022-11-26T05:10:17.888Z,1.90
2022-11-26T05:12:44.714Z,1.78
2022-11-26T05:15:11.642Z,1.89
2022-11-26T05:17:38.472Z,1.88
2022-11-26T05:20:06.136Z,1.95
2022-11-26T05:22:33.085Z,1.97
2022-11-26T05:24:59.953Z,1.98
2022-11-26T05:27:26.753Z,1.96
2022-11-26T05:29:53.692Z,1.94
2022-11-26T05:32:20.591Z,1.92
2022-11-26T05:34:47.510Z,1.84
2022-11-26T05:37:14.630Z,1.84
2022-11-26T05:39:41.516Z,1.82
2022-11-26T05:42:09.504Z,1.78
2022-11-26T05:44:37.793Z,1.84
2022-11-26T05:47:04.983Z,1.92
2022-11-26T05:49:31.858Z,1.89
2022-11-26T05:51:59.269Z,1.88
2022-11-26T05:54:26.069Z,1.88
2022-11-26T05:56:58.470Z,1.91
2022-11-26T05:59:27.935Z,1.95
2022-11-26T06:01:55.176Z,2.00
2022-11-26T06:04:22.035Z,1.99
2022-11-26T06:06:49.345Z,2.05
2022-11-26T06:09:16.528Z,2.11
2022-11-26T06:11:43.324Z,2.16
2022-11-26T06:14:11.431Z,2.17
2022-11-26T06:16:38.568Z,2.21
2022-11-26T06:19:05.782Z,2.27
2022-11-26T06:21:33.076Z,2.26
2022-11-26T06:24:00.127Z,2.29
2022-11-26T06:26:27.079Z,2.37
2022-11-26T06:28:54.592Z,2.50
2022-11-26T06:31:21.497Z,2.56
2022-11-26T06:33:54.070Z,2.70
2022-11-26T06:36:21.453Z,2.90
2022-11-26T06:38:48.345Z,2.92
2022-11-26T06:41:15.637Z,2.95
2022-11-26T06:43:42.420Z,2.99
2022-11-26T06:46:11.567Z,2.95
2022-11-26T06:48:40.141Z,3.00
2022-11-26T06:51:13.230Z,3.05
2022-11-26T06:53:41.019Z,2.98
2022-11-26T06:56:17.692Z,3.01
2022-11-26T06:58:48.123Z,3.10
2022-11-26T07:01:20.789Z,3.13
2022-11-26T07:03:48.179Z,3.20
2022-11-26T07:06:23.651Z,3.30
2022-11-26T07:08:52.342Z,3.41
2022-11-26T07:11:20.337Z,3.49
2022-11-26T07:13:47.762Z,3.52
2022-11-26T07:16:15.300Z,3.42
2022-11-26T07:18:43.062Z,3.39
2022-11-26T07:21:13.354Z,3.49
2022-11-26T07:23:40.972Z,3.56
2022-11-26T07:26:09.215Z,3.63
2022-11-26T07:28:36.846Z,3.75
2022-11-26T07:31:14.519Z,3.74
2022-11-26T07:33:44.177Z,3.78
2022-11-26T07:36:20.764Z,3.77
2022-11-26T07:38:49.475Z,3.86
2022-11-26T07:41:19.001Z,3.91
2022-11-26T07:43:46.910Z,4.00
2022-11-26T07:46:17.502Z,4.17
2022-11-26T07:48:45.382Z,4.24
2022-11-26T07:51:30.639Z,4.19
2022-11-26T07:54:00.249Z,4.23
2022-11-26T07:56:27.329Z,4.32
2022-11-26T07:58:55.625Z,4.41
2022-11-26T08:01:27.048Z,4.46
2022-11-26T08:03:54.359Z,4.66
2022-11-26T08:06:24.014Z,4.76
2022-11-26T08:08:51.208Z,4.90
2022-11-26T08:11:24.339Z,4.91
2022-11-26T08:13:58.006Z,4.92
2022-11-26T08:16:27.768Z,5.02
2022-11-26T08:18:57.138Z,5.23
2022-11-26T08:21:24.886Z,5.36
2022-11-26T08:23:53.220Z,5.36
2022-11-26T08:26:25.149Z,5.27
2022-11-26T08:29:00.205Z,5.27
2022-11-26T08:31:28.291Z,5.27
2022-11-26T08:33:58.095Z,5.31
2022-11-26T08:36:27.256Z,5.36
2022-11-26T08:38:55.143Z,5.52
2022-11-26T08:41:22.471Z,5.57
2022-11-26T08:44:07.564Z,5.67
2022-11-26T08:46:40.449Z,5.77
2022-11-26T08:49:10.696Z,5.80
2022-11-26T08:51:37.738Z,5.72
2022-11-26T08:54:04.844Z,5.67
2022-11-26T08:56:31.733Z,5.70
2022-11-26T08:58:58.790Z,5.80
2022-11-26T09:01:28.257Z,5.87
2022-11-26T09:03:57.885Z,6.00
2022-11-26T09:06:27.296Z,6.18
2022-11-26T09:09:13.317Z,6.07
2022-11-26T09:11:45.573Z,6.11
2022-11-26T09:14:13.980Z,5.88
2022-11-26T09:16:41.155Z,5.69
2022-11-26T09:19:09.036Z,5.73
2022-11-26T09:21:36.735Z,5.73
2022-11-26T09:24:04.570Z,5.85
2022-11-26T09:26:32.980Z,6.25
2022-11-26T09:29:00.599Z,6.63
2022-11-26T09:31:27.858Z,7.05
2022-11-26T09:33:56.814Z,7.40
2022-11-26T09:36:24.003Z,7.51
2022-11-26T09:38:58.773Z,7.64
2022-11-26T09:41:28.801Z,7.51
2022-11-26T09:44:07.454Z,7.47
2022-11-26T09:47:13.531Z,7.51
2022-11-26T09:50:19.077Z,7.92
2022-11-26T09:52:54.195Z,8.33
2022-11-26T09:55:23.030Z,8.47
2022-11-26T09:57:59.530Z,8.71
2022-11-26T10:00:30.438Z,8.78
2022-11-26T10:02:58.509Z,9.00
2022-11-26T10:05:41.221Z,9.15
2022-11-26T10:08:23.243Z,9.41
2022-11-26T10:10:50.405Z,9.70
2022-11-26T10:13:44.586Z,9.69
2022-11-26T10:16:23.610Z,9.90
2022-11-26T10:18:58.572Z,10.10
2022-11-26T10:21:57.260Z,10.34
2022-11-26T10:24:36.771Z,10.54
2022-11-26T10:27:20.179Z,10.46
2022-11-26T10:29:55.125Z,10.75
2022-11-26T10:32:30.874Z,10.78
2022-11-26T10:34:58.718Z,10.77
2022-11-26T10:37:28.850Z,10.91
2022-11-26T10:40:15.119Z,11.02
2022-11-26T10:42:48.699Z,11.30
2022-11-26T10:45:24.244Z,11.43
2022-11-26T10:47:51.524Z,11.40
2022-11-26T10:53:22.596Z,10.93
2022-11-26T10:55:52.137Z,11.10
2022-11-26T10:58:42.526Z,11.24
2022-11-26T11:01:14.424Z,11.35
2022-11-26T11:04:07.835Z,11.63
2022-11-26T11:06:43.643Z,11.90
2022-11-26T11:09:38.229Z,12.10
2022-11-26T11:12:11.413Z,11.90
2022-11-26T11:14:42.928Z,11.85
2022-11-26T11:17:35.370Z,11.93
2022-11-26T11:20:14.844Z,11.90
2022-11-26T11:22:43.696Z,11.94
2022-11-26T11:25:26.373Z,11.94
2022-11-26T11:27:54.893Z,12.02
2022-11-26T11:30:34.894Z,12.16
2022-11-26T11:33:23.492Z,12.13
2022-11-26T11:35:59.065Z,12.37
2022-11-26T11:38:28.738Z,12.60
2022-11-26T11:40:55.867Z,12.83
2022-11-26T11:43:25.787Z,12.94
2022-11-26T11:46:22.159Z,13.23
2022-11-26T11:49:21.994Z,13.55
2022-11-26T11:52:33.130Z,13.82
2022-11-26T11:55:02.781Z,14.07
2022-11-26T11:57:32.342Z,14.30
2022-11-26T12:00:14.198Z,14.56
2022-11-26T12:03:25.435Z,14.93
2022-11-26T12:06:14.106Z,15.32
2022-11-26T12:08:55.772Z,15.51
2022-11-26T12:11:50.422Z,15.72
2022-11-26T12:14:32.670Z,16.01
2022-11-26T12:17:32.919Z,16.13
2022-11-26T12:20:20.093Z,16.26
2022-11-26T12:22:59.425Z,16.26
2022-11-26T12:25:37.326Z,16.36
2022-11-26T12:28:34.402Z,16.19
2022-11-26T12:31:11.130Z,15.85
2022-11-26T12:33:49.656Z,16.06
2022-11-26T12:36:36.261Z,16.22
2022-11-26T12:39:18.751Z,16.42
2022-11-26T12:41:55.993Z,16.69
2022-11-26T12:44:34.240Z,16.97
2022-11-26T12:47:01.402Z,17.20
2022-11-26T12:49:42.265Z,17.24
2022-11-26T12:52:41.059Z,17.35
2022-11-26T12:55:18.934Z,17.45
2022-11-26T12:58:21.808Z,17.43
2022-11-26T13:00:54.381Z,17.26
2022-11-26T13:03:30.349Z,17.26
2022-11-26T13:06:09.325Z,17.22
2022-11-26T13:09:03.530Z,17.16
2022-11-26T13:11:55.381Z,17.01
2022-11-26T13:14:22.164Z,17.03
2022-11-26T13:16:59.908Z,16.90
2022-11-26T13:19:41.368Z,16.85
2022-11-26T13:22:47.315Z,16.88
2022-11-26T13:25:44.662Z,16.92
2022-11-26T13:28:30.574Z,16.97
2022-11-26T13:31:37.496Z,17.02
2022-11-26T13:34:26.206Z,16.94
2022-11-26T13:37:28.479Z,16.91
2022-11-26T13:40:20.127Z,16.79
2022-11-26T13:42:55.528Z,16.54
2022-11-26T13:45:56.093Z,16.27
2022-11-26T13:48:33.998Z,16.02
2022-11-26T13:51:09.709Z,15.80
2022-11-26T13:53:53.021Z,15.62
2022-11-26T13:56:26.686Z,15.45
2022-11-26T13:59:02.876Z,15.17
2022-11-26T14:01:42.583Z,14.97
2022-11-26T14:04:12.671Z,14.79
2022-11-26T14:07:05.469Z,14.53
2022-11-26T14:09:47.720Z,14.36
2022-11-26T14:12:16.382Z,14.30
2022-11-26T14:14:46.349Z,14.20
2022-11-26T14:17:20.640Z,13.94
2022-11-26T14:19:57.084Z,13.59
2022-11-26T14:22:35.709Z,13.40
2022-11-26T14:25:05.837Z,13.27
2022-11-26T14:27:35.923Z,13.16
2022-11-26T14:30:08.793Z,13.00
2022-11-26T14:32:42.411Z,12.74
2022-11-26T14:35:30.626Z,12.51
2022-11-26T14:38:02.046Z,12.30
2022-11-26T14:40:31.836Z,12.20
2022-11-26T14:43:22.385Z,12.12
2022-11-26T14:46:16.177Z,11.99
2022-11-26T14:48:45.951Z,11.83
2022-11-26T14:51:20.800Z,11.68
2022-11-26T14:53:49.924Z,11.55
2022-11-26T14:56:23.289Z,11.42
2022-11-26T14:58:55.978Z,11.30
2022-11-26T15:01:27.580Z,11.21
2022-11-26T15:04:05.800Z,11.14
2022-11-26T15:06:38.628Z,11.07
2022-11-26T15:09:19.154Z,10.97
2022-11-26T15:11:51.341Z,10.84
2022-11-26T15:14:24.453Z,10.77
2022-11-26T15:16:59.609Z,10.64
2022-11-26T15:19:30.497Z,10.52
2022-11-26T15:21:57.794Z,10.45
2022-11-26T15:24:24.759Z,10.36
2022-11-26T15:26:51.700Z,10.27
2022-11-26T15:29:41.198Z,10.15
2022-11-26T15:32:32.181Z,9.96
2022-11-26T15:35:02.196Z,9.86
2022-11-26T15:37:29.103Z,9.78
2022-11-26T15:40:24.568Z,9.67
2022-11-26T15:42:59.626Z,9.59
2022-11-26T15:45:39.342Z,9.50
2022-11-26T15:48:27.213Z,9.46
2022-11-26T15:51:00.473Z,9.36
2022-11-26T15:53:37.570Z,9.29
2022-11-26T15:56:05.359Z,9.23
2022-11-26T15:58:36.206Z,9.23
2022-11-26T16:01:11.352Z,9.14
2022-11-26T16:03:47.077Z,9.08
2022-11-26T16:06:43.616Z,9.03
2022-11-26T16:09:14.769Z,8.98
2022-11-26T16:11:57.330Z,8.90
2022-11-26T16:14:40.122Z,8.85
2022-11-26T16:17:13.324Z,8.85
2022-11-26T16:19:51.620Z,8.85
2022-11-26T16:22:22.861Z,8.84
2022-11-26T16:25:07.265Z,8.77
2022-11-26T16:27:34.841Z,8.75
2022-11-26T16:30:07.057Z,8.71
2022-11-26T16:32:34.003Z,8.63
2022-11-26T16:35:17.520Z,8.64
2022-11-26T16:37:48.219Z,8.54
2022-11-26T16:40:16.657Z,8.58
2022-11-26T16:42:43.499Z,8.60
2022-11-26T16:45:12.294Z,8.60
2022-11-26T16:47:59.364Z,8.60
2022-11-26T16:50:27.802Z,8.56
2022-11-26T16:52:55.554Z,8.56
2022-11-26T16:55:26.171Z,8.54
2022-11-26T16:57:57.020Z,8.46
2022-11-26T17:00:26.217Z,8.47
2022-11-26T17:02:53.822Z,8.48
2022-11-26T17:05:21.582Z,8.50
2022-11-26T17:07:56.130Z,8.52
2022-11-26T17:10:26.876Z,8.46
2022-11-26T17:12:53.927Z,8.46
2022-11-26T17:15:24.142Z,8.47
2022-11-26T17:17:54.550Z,8.41
2022-11-26T17:20:25.619Z,8.39
2022-11-26T17:22:53.251Z,8.37
2022-11-26T17:25:20.438Z,8.42
2022-11-26T17:27:48.190Z,8.43
2022-11-26T17:30:17.326Z,8.38
2022-11-26T17:32:44.599Z,8.44
2022-11-26T17:35:11.550Z,8.46
2022-11-26T17:37:39.466Z,8.43
2022-11-26T17:40:16.460Z,8.44
2022-11-26T17:42:43.384Z,8.37
2022-11-26T17:45:11.286Z,8.30
2022-11-26T17:47:38.584Z,8.26
2022-11-26T17:50:23.041Z,8.23
2022-11-26T17:52:50.968Z,8.18
2022-11-26T17:55:18.972Z,8.14
2022-11-26T17:57:45.827Z,8.11
2022-11-26T18:00:17.417Z,8.10
2022-11-26T18:02:46.271Z,8.07
2022-11-26T18:05:14.210Z,8.05
2022-11-26T18:07:44.685Z,8.05
2022-11-26T18:10:14.438Z,8.00
2022-11-26T18:12:41.529Z,8.01
2022-11-26T18:15:09.221Z,8.03
2022-11-26T18:17:36.803Z,8.01
2022-11-26T18:20:03.910Z,7.97
2022-11-26T18:22:31.137Z,7.94
2022-11-26T18:24:58.411Z,7.91
2022-11-26T18:27:30.667Z,7.84
2022-11-26T18:29:57.590Z,7.82
2022-11-26T18:32:24.551Z,7.79
2022-11-26T18:34:51.677Z,7.75
2022-11-26T18:37:19.323Z,7.68
2022-11-26T18:39:46.668Z,7.63
2022-11-26T18:45:02.278Z,7.54
2022-11-26T18:47:29.169Z,7.57
2022-11-26T18:49:56.319Z,7.54
2022-11-26T18:52:23.334Z,7.51
2022-11-26T18:54:50.292Z,7.50
2022-11-26T18:57:17.217Z,7.48
2022-11-26T18:59:44.973Z,7.30
2022-11-26T19:02:12.048Z,7.11
2022-11-26T19:04:39.518Z,6.96
2022-11-26T19:07:06.919Z,6.86
2022-11-26T19:09:40.357Z,6.74
2022-11-26T19:12:07.705Z,6.63
2022-11-26T19:14:40.577Z,6.60
2022-11-26T19:17:07.520Z,6.58
2022-11-26T19:19:35.006Z,6.57
2022-11-26T19:22:02.241Z,6.59
2022-11-26T19:24:30.369Z,6.62
2022-11-26T19:26:57.412Z,6.62
2022-11-26T19:29:24.470Z,6.59
2022-11-26T19:31:51.948Z,6.61
2022-11-26T19:34:19.428Z,6.60
2022-11-26T19:36:48.766Z,6.57
2022-11-26T19:39:17.038Z,6.57
2022-11-26T19:41:44.233Z,6.58
2022-11-26T19:44:11.717Z,6.55
2022-11-26T19:46:41.102Z,6.55
2022-11-26T19:49:13.433Z,6.53
2022-11-26T19:51:41.045Z,6.59
2022-11-26T19:54:08.368Z,6.68
2022-11-26T19:56:36.491Z,6.65
2022-11-26T19:59:04.149Z,6.59
2022-11-26T20:01:33.504Z,6.61
2022-11-26T20:04:03.759Z,6.58
2022-11-26T20:06:32.406Z,6.60
2022-11-26T20:08:59.517Z,6.51
2022-11-26T20:11:28.655Z,6.52
2022-11-26T20:13:56.966Z,6.53
2022-11-26T20:16:29.998Z,6.51
2022-11-26T20:18:58.752Z,6.54
2022-11-26T20:21:28.351Z,6.51
2022-11-26T20:23:59.609Z,6.50
2022-11-26T20:26:29.774Z,6.40
2022-11-26T20:29:01.346Z,6.27
2022-11-26T20:31:29.236Z,6.12
2022-11-26T20:33:56.977Z,6.05
2022-11-26T20:36:24.394Z,5.97
2022-11-26T20:38:56.018Z,5.80
2022-11-26T20:41:24.286Z,5.72
2022-11-26T20:43:58.579Z,5.76
2022-11-26T20:46:30.111Z,5.76
2022-11-26T20:48:57.674Z,5.74
2022-11-26T20:51:25.107Z,5.70
2022-11-26T20:53:53.331Z,5.71
2022-11-26T20:56:21.915Z,5.75
2022-11-26T20:58:50.818Z,5.81
2022-11-26T21:01:21.132Z,5.87
2022-11-26T21:03:48.637Z,5.87
2022-11-26T21:06:17.197Z,5.82
2022-11-26T21:08:46.109Z,5.87
2022-11-26T21:11:14.227Z,5.88
2022-11-26T21:13:42.473Z,5.83
2022-11-26T21:16:17.530Z,5.81
2022-11-26T21:18:45.807Z,5.71
2022-11-26T21:21:15.285Z,5.68
2022-11-26T21:23:46.555Z,5.61
2022-11-26T21:26:19.186Z,5.65
2022-11-26T21:28:52.721Z,5.63
2022-11-26T21:31:22.589Z,5.60
2022-11-26T21:34:01.319Z,5.65
2022-11-26T21:36:30.846Z,5.81
2022-11-26T21:38:58.542Z,5.78
2022-11-26T21:41:26.531Z,5.77
2022-11-26T21:43:54.146Z,5.74
2022-11-26T21:46:24.026Z,5.69
2022-11-26T21:48:58.455Z,5.68
2022-11-26T21:51:28.252Z,5.61
2022-11-26T21:53:56.710Z,5.65
2022-11-26T21:56:28.249Z,5.57
2022-11-26T21:58:59.832Z,5.53
2022-11-26T22:01:31.626Z,5.51
2022-11-26T22:04:00.901Z,5.23
2022-11-26T22:06:29.103Z,5.21
2022-11-26T22:08:56.812Z,5.22
2022-11-26T22:11:31.153Z,5.27
2022-11-26T22:13:58.979Z,5.30
2022-11-26T22:16:27.774Z,5.34
2022-11-26T22:18:56.920Z,5.33
2022-11-26T22:21:25.528Z,5.29
2022-11-26T22:23:53.467Z,5.31
2022-11-26T22:26:20.964Z,5.33
2022-11-26T22:28:52.302Z,5.30
2022-11-26T22:31:28.808Z,5.30
2022-11-26T22:34:10.118Z,5.30
2022-11-26T22:36:38.531Z,5.23
2022-11-26T22:39:10.028Z,5.22
2022-11-26T22:41:38.782Z,5.16
2022-11-26T22:44:05.903Z,5.19
2022-11-26T22:46:34.402Z,5.21
2022-11-26T22:49:04.766Z,5.24
2022-11-26T22:51:34.154Z,5.26
2022-11-26T22:54:04.427Z,5.28
2022-11-26T22:56:33.008Z,5.20
2022-11-26T22:59:01.823Z,5.17
2022-11-26T23:01:31.617Z,5.08
2022-11-26T23:04:00.596Z,5.04
2022-11-26T23:06:29.863Z,4.96
2022-11-26T23:08:58.384Z,4.92
2022-11-26T23:11:31.827Z,4.87
2022-11-26T23:13:59.216Z,4.90
2022-11-26T23:16:27.174Z,4.87
2022-11-26T23:18:56.896Z,4.86
2022-11-26T23:21:29.790Z,4.76
2022-11-26T23:23:58.178Z,4.50
2022-11-26T23:26:31.684Z,4.36
2022-11-26T23:29:01.468Z,4.50
2022-11-26T23:31:31.436Z,4.51
2022-11-26T23:33:59.593Z,4.43
2022-11-26T23:36:28.565Z,4.57
2022-11-26T23:38:56.639Z,4.62
2022-11-26T23:41:23.564Z,4.55
2022-11-26T23:43:52.495Z,4.49
2022-11-26T23:46:31.236Z,4.45
2022-11-26T23:48:58.969Z,4.47
2022-11-26T23:51:29.324Z,4.40
2022-11-26T23:53:57.147Z,4.34
2022-11-26T23:56:27.259Z,4.43
2022-11-26T23:58:59.469Z,4.49
